sensor_id;sensor_type;location;lat;lon;timestamp;P1;durP1;ratioP1;P2;durP2;ratioP2
55330;SDS011;58851;42.984;20.336;2023-10-31T00:00:19;70.47;;;42.22;;
55330;SDS011;58851;42.984;20.336;2023-10-31T00:02:45;58.83;;;35.75;;
55330;SDS011;58851;42.984;20.336;2023-10-31T00:05:11;56.10;;;33.47;;
55330;SDS011;58851;42.984;20.336;2023-10-31T00:07:36;62.97;;;37.65;;
55330;SDS011;58851;42.984;20.336;2023-10-31T00:10:02;79.20;;;40.17;;
55330;SDS011;58851;42.984;20.336;2023-10-31T00:12:28;70.93;;;40.85;;
55330;SDS011;58851;42.984;20.336;2023-10-31T00:14:54;57.05;;;36.53;;
55330;SDS011;58851;42.984;20.336;2023-10-31T00:17:20;39.28;;;26.90;;
55330;SDS011;58851;42.984;20.336;2023-10-31T00:19:46;46.28;;;24.77;;
55330;SDS011;58851;42.984;20.336;2023-10-31T00:22:12;38.13;;;21.80;;
55330;SDS011;58851;42.984;20.336;2023-10-31T00:24:45;36.85;;;26.02;;
55330;SDS011;58851;42.984;20.336;2023-10-31T00:27:11;38.00;;;25.42;;
55330;SDS011;58851;42.984;20.336;2023-10-31T00:29:36;44.40;;;25.50;;
55330;SDS011;58851;42.984;20.336;2023-10-31T00:32:02;43.45;;;29.92;;
55330;SDS011;58851;42.984;20.336;2023-10-31T00:34:28;37.45;;;23.33;;
55330;SDS011;58851;42.984;20.336;2023-10-31T00:36:54;39.80;;;24.40;;
55330;SDS011;58851;42.984;20.336;2023-10-31T00:39:20;40.60;;;26.08;;
55330;SDS011;58851;42.984;20.336;2023-10-31T00:41:47;44.80;;;30.67;;
55330;SDS011;58851;42.984;20.336;2023-10-31T00:44:13;77.22;;;49.67;;
55330;SDS011;58851;42.984;20.336;2023-10-31T00:46:39;62.25;;;38.13;;
55330;SDS011;58851;42.984;20.336;2023-10-31T00:49:04;54.10;;;32.00;;
55330;SDS011;58851;42.984;20.336;2023-10-31T00:51:30;75.50;;;43.90;;
55330;SDS011;58851;42.984;20.336;2023-10-31T00:53:56;93.57;;;51.25;;
55330;SDS011;58851;42.984;20.336;2023-10-31T00:56:22;63.00;;;39.38;;
55330;SDS011;58851;42.984;20.336;2023-10-31T00:58:48;51.53;;;33.75;;
55330;SDS011;58851;42.984;20.336;2023-10-31T01:01:14;58.38;;;34.47;;
55330;SDS011;58851;42.984;20.336;2023-10-31T01:03:39;45.33;;;33.58;;
55330;SDS011;58851;42.984;20.336;2023-10-31T01:06:05;48.10;;;31.65;;
55330;SDS011;58851;42.984;20.336;2023-10-31T01:08:31;43.53;;;29.17;;
55330;SDS011;58851;42.984;20.336;2023-10-31T01:10:57;36.38;;;24.52;;
55330;SDS011;58851;42.984;20.336;2023-10-31T01:13:23;60.97;;;35.38;;
55330;SDS011;58851;42.984;20.336;2023-10-31T01:15:49;54.55;;;36.15;;
55330;SDS011;58851;42.984;20.336;2023-10-31T01:18:14;50.17;;;31.70;;
55330;SDS011;58851;42.984;20.336;2023-10-31T01:20:40;50.42;;;31.50;;
55330;SDS011;58851;42.984;20.336;2023-10-31T01:23:06;48.95;;;31.20;;
55330;SDS011;58851;42.984;20.336;2023-10-31T01:25:32;42.25;;;27.17;;
55330;SDS011;58851;42.984;20.336;2023-10-31T01:27:57;42.55;;;28.45;;
55330;SDS011;58851;42.984;20.336;2023-10-31T01:30:23;43.20;;;27.77;;
55330;SDS011;58851;42.984;20.336;2023-10-31T01:32:49;40.00;;;24.67;;
55330;SDS011;58851;42.984;20.336;2023-10-31T01:35:15;39.22;;;24.58;;
55330;SDS011;58851;42.984;20.336;2023-10-31T01:37:41;35.75;;;24.05;;
55330;SDS011;58851;42.984;20.336;2023-10-31T01:40:06;39.95;;;25.50;;
55330;SDS011;58851;42.984;20.336;2023-10-31T01:42:33;37.35;;;25.55;;
55330;SDS011;58851;42.984;20.336;2023-10-31T01:44:58;41.50;;;27.65;;
55330;SDS011;58851;42.984;20.336;2023-10-31T01:47:24;32.58;;;21.23;;
55330;SDS011;58851;42.984;20.336;2023-10-31T01:49:51;30.52;;;20.38;;
55330;SDS011;58851;42.984;20.336;2023-10-31T01:52:17;38.65;;;25.33;;
55330;SDS011;58851;42.984;20.336;2023-10-31T01:54:43;35.75;;;26.27;;
55330;SDS011;58851;42.984;20.336;2023-10-31T01:57:10;40.90;;;28.88;;
55330;SDS011;58851;42.984;20.336;2023-10-31T01:59:36;43.03;;;27.50;;
55330;SDS011;58851;42.984;20.336;2023-10-31T02:02:02;49.38;;;28.85;;
55330;SDS011;58851;42.984;20.336;2023-10-31T02:04:30;40.33;;;26.83;;
55330;SDS011;58851;42.984;20.336;2023-10-31T02:06:56;40.40;;;24.38;;
55330;SDS011;58851;42.984;20.336;2023-10-31T02:09:21;45.38;;;27.10;;
55330;SDS011;58851;42.984;20.336;2023-10-31T02:11:49;42.13;;;28.75;;
55330;SDS011;58851;42.984;20.336;2023-10-31T02:14:15;44.47;;;26.60;;
55330;SDS011;58851;42.984;20.336;2023-10-31T02:16:42;32.33;;;21.13;;
55330;SDS011;58851;42.984;20.336;2023-10-31T02:19:07;39.15;;;23.88;;
55330;SDS011;58851;42.984;20.336;2023-10-31T02:21:38;36.72;;;23.13;;
55330;SDS011;58851;42.984;20.336;2023-10-31T02:24:04;28.90;;;19.17;;
55330;SDS011;58851;42.984;20.336;2023-10-31T02:26:31;24.50;;;16.83;;
55330;SDS011;58851;42.984;20.336;2023-10-31T02:28:58;27.95;;;18.45;;
55330;SDS011;58851;42.984;20.336;2023-10-31T02:31:24;26.05;;;16.70;;
55330;SDS011;58851;42.984;20.336;2023-10-31T02:33:51;24.98;;;15.10;;
55330;SDS011;58851;42.984;20.336;2023-10-31T02:36:17;23.92;;;16.65;;
55330;SDS011;58851;42.984;20.336;2023-10-31T02:38:43;29.35;;;18.00;;
55330;SDS011;58851;42.984;20.336;2023-10-31T02:41:09;26.65;;;17.58;;
55330;SDS011;58851;42.984;20.336;2023-10-31T02:43:35;28.30;;;19.40;;
55330;SDS011;58851;42.984;20.336;2023-10-31T02:46:02;26.50;;;18.30;;
55330;SDS011;58851;42.984;20.336;2023-10-31T02:48:28;22.90;;;16.58;;
55330;SDS011;58851;42.984;20.336;2023-10-31T02:50:54;27.67;;;17.73;;
55330;SDS011;58851;42.984;20.336;2023-10-31T02:53:20;26.42;;;17.42;;
55330;SDS011;58851;42.984;20.336;2023-10-31T02:55:46;26.33;;;16.88;;
55330;SDS011;58851;42.984;20.336;2023-10-31T02:58:11;31.27;;;20.10;;
55330;SDS011;58851;42.984;20.336;2023-10-31T03:00:37;30.17;;;19.55;;
55330;SDS011;58851;42.984;20.336;2023-10-31T03:03:03;28.77;;;18.13;;
55330;SDS011;58851;42.984;20.336;2023-10-31T03:05:29;27.67;;;17.27;;
55330;SDS011;58851;42.984;20.336;2023-10-31T03:07:56;41.20;;;23.88;;
55330;SDS011;58851;42.984;20.336;2023-10-31T03:10:21;33.65;;;20.48;;
55330;SDS011;58851;42.984;20.336;2023-10-31T03:12:47;30.42;;;19.48;;
55330;SDS011;58851;42.984;20.336;2023-10-31T03:15:13;18.02;;;11.20;;
55330;SDS011;58851;42.984;20.336;2023-10-31T03:17:40;21.75;;;13.10;;
55330;SDS011;58851;42.984;20.336;2023-10-31T03:20:06;23.35;;;14.85;;
55330;SDS011;58851;42.984;20.336;2023-10-31T03:22:33;21.20;;;13.38;;
55330;SDS011;58851;42.984;20.336;2023-10-31T03:25:00;22.52;;;12.85;;
55330;SDS011;58851;42.984;20.336;2023-10-31T03:27:26;26.30;;;16.42;;
55330;SDS011;58851;42.984;20.336;2023-10-31T03:29:52;28.02;;;17.40;;
55330;SDS011;58851;42.984;20.336;2023-10-31T03:32:17;26.50;;;16.45;;
55330;SDS011;58851;42.984;20.336;2023-10-31T03:34:43;26.25;;;17.98;;
55330;SDS011;58851;42.984;20.336;2023-10-31T03:37:09;29.92;;;17.50;;
55330;SDS011;58851;42.984;20.336;2023-10-31T03:39:35;28.52;;;18.38;;
55330;SDS011;58851;42.984;20.336;2023-10-31T03:42:00;36.80;;;22.30;;
55330;SDS011;58851;42.984;20.336;2023-10-31T03:44:26;45.33;;;27.30;;
55330;SDS011;58851;42.984;20.336;2023-10-31T03:46:54;37.38;;;22.77;;
55330;SDS011;58851;42.984;20.336;2023-10-31T03:49:20;31.90;;;20.83;;
55330;SDS011;58851;42.984;20.336;2023-10-31T03:51:46;32.15;;;21.92;;
55330;SDS011;58851;42.984;20.336;2023-10-31T03:54:12;27.50;;;18.60;;
55330;SDS011;58851;42.984;20.336;2023-10-31T03:56:39;34.08;;;18.55;;
55330;SDS011;58851;42.984;20.336;2023-10-31T03:59:05;24.65;;;18.15;;
55330;SDS011;58851;42.984;20.336;2023-10-31T04:01:31;24.63;;;16.40;;
55330;SDS011;58851;42.984;20.336;2023-10-31T04:03:57;27.33;;;16.23;;
55330;SDS011;58851;42.984;20.336;2023-10-31T04:06:23;20.67;;;15.90;;
55330;SDS011;58851;42.984;20.336;2023-10-31T04:08:48;20.30;;;14.23;;
55330;SDS011;58851;42.984;20.336;2023-10-31T04:11:14;22.08;;;15.27;;
55330;SDS011;58851;42.984;20.336;2023-10-31T04:13:40;24.38;;;15.57;;
55330;SDS011;58851;42.984;20.336;2023-10-31T04:16:06;24.95;;;14.75;;
55330;SDS011;58851;42.984;20.336;2023-10-31T04:18:32;22.33;;;15.65;;
55330;SDS011;58851;42.984;20.336;2023-10-31T04:20:58;22.35;;;14.88;;
55330;SDS011;58851;42.984;20.336;2023-10-31T04:23:24;22.00;;;15.73;;
55330;SDS011;58851;42.984;20.336;2023-10-31T04:25:50;25.38;;;18.67;;
55330;SDS011;58851;42.984;20.336;2023-10-31T04:28:17;25.15;;;17.67;;
55330;SDS011;58851;42.984;20.336;2023-10-31T04:30:43;23.63;;;15.10;;
55330;SDS011;58851;42.984;20.336;2023-10-31T04:33:09;26.75;;;16.95;;
55330;SDS011;58851;42.984;20.336;2023-10-31T04:35:35;27.33;;;16.25;;
55330;SDS011;58851;42.984;20.336;2023-10-31T04:38:01;24.42;;;15.27;;
55330;SDS011;58851;42.984;20.336;2023-10-31T04:40:26;22.90;;;15.90;;
55330;SDS011;58851;42.984;20.336;2023-10-31T04:42:52;25.30;;;15.27;;
55330;SDS011;58851;42.984;20.336;2023-10-31T04:45:19;20.10;;;14.63;;
55330;SDS011;58851;42.984;20.336;2023-10-31T04:47:45;20.10;;;14.18;;
55330;SDS011;58851;42.984;20.336;2023-10-31T04:50:10;22.70;;;15.27;;
55330;SDS011;58851;42.984;20.336;2023-10-31T04:52:36;22.88;;;15.65;;
55330;SDS011;58851;42.984;20.336;2023-10-31T04:55:02;22.02;;;15.90;;
55330;SDS011;58851;42.984;20.336;2023-10-31T04:57:28;25.98;;;14.98;;
55330;SDS011;58851;42.984;20.336;2023-10-31T04:59:54;23.38;;;14.32;;
55330;SDS011;58851;42.984;20.336;2023-10-31T05:02:22;21.75;;;15.25;;
55330;SDS011;58851;42.984;20.336;2023-10-31T05:04:48;21.90;;;15.30;;
55330;SDS011;58851;42.984;20.336;2023-10-31T05:07:16;22.23;;;15.65;;
55330;SDS011;58851;42.984;20.336;2023-10-31T05:09:42;21.25;;;15.85;;
55330;SDS011;58851;42.984;20.336;2023-10-31T05:12:08;25.33;;;15.32;;
55330;SDS011;58851;42.984;20.336;2023-10-31T05:14:34;23.33;;;15.25;;
55330;SDS011;58851;42.984;20.336;2023-10-31T05:17:00;27.90;;;18.83;;
55330;SDS011;58851;42.984;20.336;2023-10-31T05:19:26;24.17;;;18.95;;
55330;SDS011;58851;42.984;20.336;2023-10-31T05:21:52;32.13;;;20.50;;
55330;SDS011;58851;42.984;20.336;2023-10-31T05:24:18;34.10;;;24.63;;
55330;SDS011;58851;42.984;20.336;2023-10-31T05:26:44;30.67;;;19.33;;
55330;SDS011;58851;42.984;20.336;2023-10-31T05:29:12;31.65;;;20.77;;
55330;SDS011;58851;42.984;20.336;2023-10-31T05:31:38;34.38;;;21.48;;
55330;SDS011;58851;42.984;20.336;2023-10-31T05:34:04;29.25;;;20.40;;
55330;SDS011;58851;42.984;20.336;2023-10-31T05:36:30;40.25;;;24.90;;
55330;SDS011;58851;42.984;20.336;2023-10-31T05:38:56;42.40;;;25.85;;
55330;SDS011;58851;42.984;20.336;2023-10-31T05:41:22;43.58;;;30.50;;
55330;SDS011;58851;42.984;20.336;2023-10-31T05:43:48;44.03;;;27.60;;
55330;SDS011;58851;42.984;20.336;2023-10-31T05:46:13;43.03;;;25.50;;
55330;SDS011;58851;42.984;20.336;2023-10-31T05:48:40;40.55;;;25.65;;
55330;SDS011;58851;42.984;20.336;2023-10-31T05:51:15;45.25;;;26.27;;
55330;SDS011;58851;42.984;20.336;2023-10-31T05:53:45;38.50;;;25.55;;
55330;SDS011;58851;42.984;20.336;2023-10-31T05:56:12;37.55;;;23.98;;
55330;SDS011;58851;42.984;20.336;2023-10-31T05:58:39;28.40;;;19.60;;
55330;SDS011;58851;42.984;20.336;2023-10-31T06:01:06;31.25;;;19.60;;
55330;SDS011;58851;42.984;20.336;2023-10-31T06:03:33;40.10;;;24.45;;
55330;SDS011;58851;42.984;20.336;2023-10-31T06:05:59;45.20;;;27.35;;
55330;SDS011;58851;42.984;20.336;2023-10-31T06:08:25;40.45;;;26.83;;
55330;SDS011;58851;42.984;20.336;2023-10-31T06:10:54;48.25;;;30.15;;
55330;SDS011;58851;42.984;20.336;2023-10-31T06:13:20;43.60;;;29.83;;
55330;SDS011;58851;42.984;20.336;2023-10-31T06:15:47;56.10;;;37.10;;
55330;SDS011;58851;42.984;20.336;2023-10-31T06:18:13;54.35;;;35.42;;
55330;SDS011;58851;42.984;20.336;2023-10-31T06:20:38;48.75;;;28.95;;
55330;SDS011;58851;42.984;20.336;2023-10-31T06:23:05;38.28;;;27.00;;
55330;SDS011;58851;42.984;20.336;2023-10-31T06:25:31;50.28;;;33.10;;
55330;SDS011;58851;42.984;20.336;2023-10-31T06:27:56;46.17;;;29.92;;
55330;SDS011;58851;42.984;20.336;2023-10-31T06:30:22;49.22;;;32.72;;
55330;SDS011;58851;42.984;20.336;2023-10-31T06:32:50;53.15;;;30.08;;
55330;SDS011;58851;42.984;20.336;2023-10-31T06:35:18;50.17;;;31.85;;
55330;SDS011;58851;42.984;20.336;2023-10-31T06:37:44;50.75;;;33.20;;
55330;SDS011;58851;42.984;20.336;2023-10-31T06:40:10;59.13;;;32.53;;
55330;SDS011;58851;42.984;20.336;2023-10-31T06:42:36;45.75;;;31.23;;
55330;SDS011;58851;42.984;20.336;2023-10-31T06:45:02;48.95;;;34.80;;
55330;SDS011;58851;42.984;20.336;2023-10-31T06:47:28;50.08;;;33.67;;
55330;SDS011;58851;42.984;20.336;2023-10-31T06:49:55;52.72;;;36.30;;
55330;SDS011;58851;42.984;20.336;2023-10-31T06:52:21;57.30;;;37.42;;
55330;SDS011;58851;42.984;20.336;2023-10-31T06:54:46;58.72;;;41.55;;
55330;SDS011;58851;42.984;20.336;2023-10-31T06:57:12;58.95;;;38.63;;
55330;SDS011;58851;42.984;20.336;2023-10-31T06:59:40;60.85;;;41.10;;
55330;SDS011;58851;42.984;20.336;2023-10-31T07:02:06;52.90;;;37.50;;
55330;SDS011;58851;42.984;20.336;2023-10-31T07:04:32;62.03;;;39.00;;
55330;SDS011;58851;42.984;20.336;2023-10-31T07:06:58;51.25;;;34.28;;
55330;SDS011;58851;42.984;20.336;2023-10-31T07:09:24;60.85;;;38.30;;
55330;SDS011;58851;42.984;20.336;2023-10-31T07:11:51;40.53;;;30.50;;
55330;SDS011;58851;42.984;20.336;2023-10-31T07:14:17;40.95;;;25.27;;
55330;SDS011;58851;42.984;20.336;2023-10-31T07:16:43;39.88;;;24.52;;
55330;SDS011;58851;42.984;20.336;2023-10-31T07:19:12;27.67;;;20.45;;
55330;SDS011;58851;42.984;20.336;2023-10-31T07:21:38;31.73;;;21.50;;
55330;SDS011;58851;42.984;20.336;2023-10-31T07:24:03;49.75;;;27.95;;
55330;SDS011;58851;42.984;20.336;2023-10-31T07:26:30;45.38;;;31.30;;
55330;SDS011;58851;42.984;20.336;2023-10-31T07:28:55;62.15;;;36.42;;
55330;SDS011;58851;42.984;20.336;2023-10-31T07:31:21;41.85;;;29.15;;
55330;SDS011;58851;42.984;20.336;2023-10-31T07:33:47;37.10;;;27.48;;
55330;SDS011;58851;42.984;20.336;2023-10-31T07:36:13;39.97;;;27.25;;
55330;SDS011;58851;42.984;20.336;2023-10-31T07:38:39;43.83;;;30.17;;
55330;SDS011;58851;42.984;20.336;2023-10-31T07:41:04;43.20;;;31.27;;
55330;SDS011;58851;42.984;20.336;2023-10-31T07:43:30;41.97;;;31.42;;
55330;SDS011;58851;42.984;20.336;2023-10-31T07:45:56;46.72;;;29.40;;
55330;SDS011;58851;42.984;20.336;2023-10-31T07:48:22;86.72;;;50.40;;
55330;SDS011;58851;42.984;20.336;2023-10-31T07:50:48;72.47;;;47.97;;
55330;SDS011;58851;42.984;20.336;2023-10-31T07:53:13;71.30;;;46.53;;
55330;SDS011;58851;42.984;20.336;2023-10-31T07:55:39;64.20;;;42.58;;
55330;SDS011;58851;42.984;20.336;2023-10-31T07:58:05;55.42;;;40.40;;
55330;SDS011;58851;42.984;20.336;2023-10-31T08:00:31;62.47;;;43.35;;
55330;SDS011;58851;42.984;20.336;2023-10-31T08:02:58;59.90;;;41.10;;
55330;SDS011;58851;42.984;20.336;2023-10-31T08:05:23;58.58;;;41.88;;
55330;SDS011;58851;42.984;20.336;2023-10-31T08:07:51;65.38;;;46.78;;
55330;SDS011;58851;42.984;20.336;2023-10-31T08:10:16;70.28;;;48.85;;
55330;SDS011;58851;42.984;20.336;2023-10-31T08:12:42;71.70;;;50.95;;
55330;SDS011;58851;42.984;20.336;2023-10-31T08:15:08;69.63;;;50.17;;
55330;SDS011;58851;42.984;20.336;2023-10-31T08:17:34;49.25;;;35.15;;
55330;SDS011;58851;42.984;20.336;2023-10-31T08:20:00;79.95;;;48.40;;
55330;SDS011;58851;42.984;20.336;2023-10-31T08:22:29;69.20;;;44.60;;
55330;SDS011;58851;42.984;20.336;2023-10-31T08:24:54;58.53;;;36.88;;
55330;SDS011;58851;42.984;20.336;2023-10-31T08:27:20;54.10;;;37.17;;
55330;SDS011;58851;42.984;20.336;2023-10-31T08:29:46;61.13;;;40.40;;
55330;SDS011;58851;42.984;20.336;2023-10-31T08:32:12;155.32;;;86.22;;
55330;SDS011;58851;42.984;20.336;2023-10-31T08:34:38;86.03;;;54.78;;
55330;SDS011;58851;42.984;20.336;2023-10-31T08:37:04;65.85;;;41.60;;
55330;SDS011;58851;42.984;20.336;2023-10-31T08:39:30;58.20;;;39.00;;
55330;SDS011;58851;42.984;20.336;2023-10-31T08:41:56;53.13;;;38.25;;
55330;SDS011;58851;42.984;20.336;2023-10-31T08:44:24;48.05;;;32.72;;
55330;SDS011;58851;42.984;20.336;2023-10-31T08:46:50;43.38;;;32.70;;
55330;SDS011;58851;42.984;20.336;2023-10-31T08:49:16;59.28;;;42.75;;
55330;SDS011;58851;42.984;20.336;2023-10-31T08:51:42;59.95;;;41.60;;
55330;SDS011;58851;42.984;20.336;2023-10-31T08:54:09;45.45;;;26.95;;
55330;SDS011;58851;42.984;20.336;2023-10-31T08:56:35;45.40;;;29.15;;
55330;SDS011;58851;42.984;20.336;2023-10-31T09:31:18;54.85;;;40.47;;
55330;SDS011;58851;42.984;20.336;2023-10-31T09:33:47;38.97;;;29.40;;
55330;SDS011;58851;42.984;20.336;2023-10-31T09:36:13;43.03;;;30.70;;
55330;SDS011;58851;42.984;20.336;2023-10-31T09:38:39;52.72;;;31.52;;
55330;SDS011;58851;42.984;20.336;2023-10-31T09:41:05;61.13;;;38.58;;
55330;SDS011;58851;42.984;20.336;2023-10-31T09:43:31;55.08;;;38.00;;
55330;SDS011;58851;42.984;20.336;2023-10-31T09:45:57;58.05;;;36.35;;
55330;SDS011;58851;42.984;20.336;2023-10-31T09:48:25;53.33;;;37.03;;
55330;SDS011;58851;42.984;20.336;2023-10-31T09:50:51;69.05;;;44.15;;
55330;SDS011;58851;42.984;20.336;2023-10-31T09:53:18;65.75;;;42.90;;
55330;SDS011;58851;42.984;20.336;2023-10-31T09:55:45;81.22;;;49.25;;
55330;SDS011;58851;42.984;20.336;2023-10-31T09:58:12;68.20;;;46.15;;
55330;SDS011;58851;42.984;20.336;2023-10-31T10:00:38;82.00;;;53.33;;
55330;SDS011;58851;42.984;20.336;2023-10-31T10:03:08;61.42;;;44.65;;
55330;SDS011;58851;42.984;20.336;2023-10-31T10:05:37;63.28;;;42.22;;
55330;SDS011;58851;42.984;20.336;2023-10-31T10:08:06;85.57;;;58.35;;
55330;SDS011;58851;42.984;20.336;2023-10-31T10:10:33;126.78;;;86.50;;
55330;SDS011;58851;42.984;20.336;2023-10-31T10:12:59;83.78;;;55.90;;
55330;SDS011;58851;42.984;20.336;2023-10-31T10:15:28;85.95;;;57.60;;
55330;SDS011;58851;42.984;20.336;2023-10-31T10:17:54;67.65;;;48.22;;
55330;SDS011;58851;42.984;20.336;2023-10-31T10:20:20;48.65;;;37.47;;
55330;SDS011;58851;42.984;20.336;2023-10-31T10:22:46;54.03;;;36.83;;
55330;SDS011;58851;42.984;20.336;2023-10-31T10:25:13;63.47;;;38.15;;
55330;SDS011;58851;42.984;20.336;2023-10-31T10:27:46;62.03;;;40.85;;
55330;SDS011;58851;42.984;20.336;2023-10-31T10:30:13;53.38;;;41.03;;
55330;SDS011;58851;42.984;20.336;2023-10-31T10:32:40;57.63;;;41.13;;
55330;SDS011;58851;42.984;20.336;2023-10-31T10:35:07;65.93;;;47.83;;
55330;SDS011;58851;42.984;20.336;2023-10-31T10:37:34;87.40;;;55.22;;
55330;SDS011;58851;42.984;20.336;2023-10-31T10:40:03;71.18;;;52.08;;
55330;SDS011;58851;42.984;20.336;2023-10-31T10:42:32;77.18;;;54.30;;
55330;SDS011;58851;42.984;20.336;2023-10-31T10:45:02;87.40;;;58.10;;
55330;SDS011;58851;42.984;20.336;2023-10-31T10:47:31;78.55;;;55.47;;
55330;SDS011;58851;42.984;20.336;2023-10-31T10:50:00;71.43;;;52.65;;
55330;SDS011;58851;42.984;20.336;2023-10-31T10:57:52;57.17;;;39.80;;
55330;SDS011;58851;42.984;20.336;2023-10-31T11:00:24;58.90;;;35.60;;
55330;SDS011;58851;42.984;20.336;2023-10-31T11:02:51;69.80;;;42.35;;
55330;SDS011;58851;42.984;20.336;2023-10-31T11:05:18;45.65;;;34.28;;
55330;SDS011;58851;42.984;20.336;2023-10-31T11:07:44;39.10;;;29.85;;
55330;SDS011;58851;42.984;20.336;2023-10-31T11:10:11;36.88;;;24.52;;
55330;SDS011;58851;42.984;20.336;2023-10-31T11:12:37;35.28;;;20.77;;
55330;SDS011;58851;42.984;20.336;2023-10-31T11:15:06;37.08;;;25.00;;
55330;SDS011;58851;42.984;20.336;2023-10-31T11:17:35;45.10;;;32.95;;
55330;SDS011;58851;42.984;20.336;2023-10-31T11:20:03;55.25;;;36.97;;
55330;SDS011;58851;42.984;20.336;2023-10-31T11:22:42;60.53;;;40.47;;
55330;SDS011;58851;42.984;20.336;2023-10-31T11:25:11;91.63;;;60.85;;
55330;SDS011;58851;42.984;20.336;2023-10-31T11:27:39;66.30;;;49.72;;
55330;SDS011;58851;42.984;20.336;2023-10-31T12:01:13;92.40;;;58.28;;
55330;SDS011;58851;42.984;20.336;2023-10-31T12:03:42;88.88;;;56.47;;
55330;SDS011;58851;42.984;20.336;2023-10-31T12:06:15;91.20;;;59.28;;
55330;SDS011;58851;42.984;20.336;2023-10-31T12:08:44;67.68;;;45.35;;
55330;SDS011;58851;42.984;20.336;2023-10-31T12:11:10;66.10;;;45.70;;
55330;SDS011;58851;42.984;20.336;2023-10-31T12:16:22;73.25;;;54.45;;
55330;SDS011;58851;42.984;20.336;2023-10-31T12:19:03;105.45;;;66.93;;
55330;SDS011;58851;42.984;20.336;2023-10-31T12:21:42;114.43;;;70.85;;
55330;SDS011;58851;42.984;20.336;2023-10-31T12:24:12;89.18;;;47.50;;
55330;SDS011;58851;42.984;20.336;2023-10-31T12:26:42;21.33;;;8.95;;
55330;SDS011;58851;42.984;20.336;2023-10-31T12:29:13;15.05;;;5.93;;
55330;SDS011;58851;42.984;20.336;2023-10-31T12:31:47;19.87;;;7.07;;
55330;SDS011;58851;42.984;20.336;2023-10-31T12:34:21;11.18;;;3.47;;
55330;SDS011;58851;42.984;20.336;2023-10-31T12:36:49;23.23;;;5.07;;
55330;SDS011;58851;42.984;20.336;2023-10-31T12:39:22;26.73;;;7.22;;
55330;SDS011;58851;42.984;20.336;2023-10-31T12:41:51;21.75;;;7.25;;
55330;SDS011;58851;42.984;20.336;2023-10-31T12:44:19;26.65;;;6.53;;
55330;SDS011;58851;42.984;20.336;2023-10-31T12:46:51;27.77;;;5.25;;
55330;SDS011;58851;42.984;20.336;2023-10-31T12:49:18;22.27;;;7.63;;
55330;SDS011;58851;42.984;20.336;2023-10-31T12:51:57;18.42;;;5.45;;
55330;SDS011;58851;42.984;20.336;2023-10-31T12:54:37;18.58;;;6.65;;
55330;SDS011;58851;42.984;20.336;2023-10-31T12:57:03;19.50;;;6.80;;
55330;SDS011;58851;42.984;20.336;2023-10-31T12:59:34;29.17;;;7.38;;
55330;SDS011;58851;42.984;20.336;2023-10-31T13:02:04;18.25;;;5.68;;
55330;SDS011;58851;42.984;20.336;2023-10-31T13:04:31;22.17;;;7.10;;
55330;SDS011;58851;42.984;20.336;2023-10-31T13:07:02;15.23;;;4.88;;
55330;SDS011;58851;42.984;20.336;2023-10-31T13:09:28;37.17;;;11.88;;
55330;SDS011;58851;42.984;20.336;2023-10-31T13:12:00;51.33;;;20.33;;
55330;SDS011;58851;42.984;20.336;2023-10-31T13:14:27;22.40;;;4.70;;
55330;SDS011;58851;42.984;20.336;2023-10-31T13:16:54;17.75;;;4.65;;
55330;SDS011;58851;42.984;20.336;2023-10-31T13:19:19;32.60;;;9.93;;
55330;SDS011;58851;42.984;20.336;2023-10-31T13:21:47;24.20;;;6.05;;
55330;SDS011;58851;42.984;20.336;2023-10-31T13:24:13;24.00;;;7.60;;
55330;SDS011;58851;42.984;20.336;2023-10-31T13:26:39;21.08;;;5.15;;
55330;SDS011;58851;42.984;20.336;2023-10-31T13:29:04;15.25;;;6.85;;
55330;SDS011;58851;42.984;20.336;2023-10-31T13:31:30;20.10;;;8.25;;
55330;SDS011;58851;42.984;20.336;2023-10-31T13:33:56;27.27;;;7.00;;
55330;SDS011;58851;42.984;20.336;2023-10-31T13:36:22;27.02;;;7.40;;
55330;SDS011;58851;42.984;20.336;2023-10-31T13:38:47;22.27;;;6.18;;
55330;SDS011;58851;42.984;20.336;2023-10-31T13:41:14;24.15;;;6.72;;
55330;SDS011;58851;42.984;20.336;2023-10-31T13:43:40;28.77;;;7.55;;
55330;SDS011;58851;42.984;20.336;2023-10-31T13:46:05;34.47;;;16.10;;
55330;SDS011;58851;42.984;20.336;2023-10-31T13:48:31;21.33;;;9.57;;
55330;SDS011;58851;42.984;20.336;2023-10-31T13:50:57;31.67;;;10.68;;
55330;SDS011;58851;42.984;20.336;2023-10-31T13:53:23;21.83;;;11.27;;
55330;SDS011;58851;42.984;20.336;2023-10-31T13:55:49;26.30;;;11.25;;
55330;SDS011;58851;42.984;20.336;2023-10-31T13:58:15;22.45;;;6.20;;
55330;SDS011;58851;42.984;20.336;2023-10-31T14:00:42;19.10;;;5.03;;
55330;SDS011;58851;42.984;20.336;2023-10-31T14:03:10;25.30;;;5.95;;
55330;SDS011;58851;42.984;20.336;2023-10-31T14:05:36;19.70;;;7.35;;
55330;SDS011;58851;42.984;20.336;2023-10-31T14:08:03;26.27;;;9.07;;
55330;SDS011;58851;42.984;20.336;2023-10-31T14:10:30;27.63;;;10.77;;
55330;SDS011;58851;42.984;20.336;2023-10-31T14:12:56;19.05;;;8.88;;
55330;SDS011;58851;42.984;20.336;2023-10-31T14:15:22;21.48;;;8.43;;
55330;SDS011;58851;42.984;20.336;2023-10-31T14:17:48;21.83;;;8.32;;
55330;SDS011;58851;42.984;20.336;2023-10-31T14:20:17;16.77;;;6.97;;
55330;SDS011;58851;42.984;20.336;2023-10-31T14:22:47;21.08;;;9.60;;
55330;SDS011;58851;42.984;20.336;2023-10-31T14:25:13;27.10;;;10.48;;
55330;SDS011;58851;42.984;20.336;2023-10-31T14:27:40;17.23;;;8.32;;
55330;SDS011;58851;42.984;20.336;2023-10-31T14:30:07;16.63;;;5.50;;
55330;SDS011;58851;42.984;20.336;2023-10-31T14:32:34;27.23;;;12.32;;
55330;SDS011;58851;42.984;20.336;2023-10-31T14:35:00;39.78;;;15.13;;
55330;SDS011;58851;42.984;20.336;2023-10-31T14:37:27;39.35;;;21.30;;
55330;SDS011;58851;42.984;20.336;2023-10-31T14:39:53;32.70;;;14.52;;
55330;SDS011;58851;42.984;20.336;2023-10-31T14:42:19;24.83;;;9.32;;
55330;SDS011;58851;42.984;20.336;2023-10-31T14:44:45;23.13;;;7.85;;
55330;SDS011;58851;42.984;20.336;2023-10-31T14:47:11;23.10;;;7.95;;
55330;SDS011;58851;42.984;20.336;2023-10-31T14:49:37;21.23;;;8.40;;
55330;SDS011;58851;42.984;20.336;2023-10-31T14:52:04;23.17;;;9.68;;
55330;SDS011;58851;42.984;20.336;2023-10-31T14:54:31;20.73;;;7.20;;
55330;SDS011;58851;42.984;20.336;2023-10-31T14:56:57;26.45;;;10.70;;
55330;SDS011;58851;42.984;20.336;2023-10-31T14:59:23;15.32;;;4.53;;
55330;SDS011;58851;42.984;20.336;2023-10-31T15:01:48;11.40;;;6.60;;
55330;SDS011;58851;42.984;20.336;2023-10-31T15:04:14;16.63;;;4.35;;
55330;SDS011;58851;42.984;20.336;2023-10-31T15:06:41;29.05;;;5.38;;
55330;SDS011;58851;42.984;20.336;2023-10-31T15:09:08;19.30;;;5.72;;
55330;SDS011;58851;42.984;20.336;2023-10-31T15:11:34;15.02;;;6.28;;
55330;SDS011;58851;42.984;20.336;2023-10-31T15:14:01;48.78;;;24.90;;
55330;SDS011;58851;42.984;20.336;2023-10-31T15:16:27;62.88;;;38.00;;
55330;SDS011;58851;42.984;20.336;2023-10-31T15:18:53;19.23;;;10.27;;